CheckWX is a tool to help pilots better visualize weather data.  It is not intended as a substitute for an official pre-flight weather briefing.

05:22:21 UTC

CYHK METAR
Gjoa Haven Airport
Gjoa Haven, Canada
Current

22 mins ago

CYHK 200500Z AUTO 30015KT 1 3/4SM HZ FEW002 BKN230 M33/M37 A2995 RMK SLP153
Observed
Feb-20 @ 05:00 UTC
Wind
  • 300° at 15 KTS
Visibility
2,816 meters
Flight Rules
IFR
Conditions
Haze
Cloud Levels
  • Few at 200' AGL
  • Broken at 23,000' AGL
Temperature
-33°C / -27°F
Dewpoint
-37°C / -35°F
Humidity
67%
Altimeter
29.95" Hg
Pressure
1015.3 hPa
Previous

30 mins ago

CYHK 200452Z AUTO 30016KT 1 1/2SM HZ SCT002 SCT240 M33/M37 A2995 RMK SLP153
Observed
Feb-20 @ 04:52 UTC
Wind
  • 300° at 16 KTS
Visibility
2,414 meters
Flight Rules
IFR
Conditions
Haze
Cloud Levels
  • Scattered at 200' AGL
  • Scattered at 24,000' AGL
Temperature
-33°C / -27°F
Dewpoint
-37°C / -35°F
Humidity
67%
Altimeter
29.95" Hg
Pressure
1015.3 hPa
Previous

37 mins ago

CYHK 200445Z AUTO 30015KT 1SM HZ SCT002 BKN190 BKN210 BKN240 M33/M37 A2995 RMK SLP152
Observed
Feb-20 @ 04:45 UTC
Wind
  • 300° at 15 KTS
Visibility
1,609 meters
Flight Rules
IFR
Conditions
Haze
Cloud Levels
  • Scattered at 200' AGL
  • Broken at 19,000' AGL
  • Broken at 21,000' AGL
  • Broken at 24,000' AGL
Temperature
-33°C / -27°F
Dewpoint
-37°C / -35°F
Humidity
67%
Altimeter
29.95" Hg
Pressure
1015.2 hPa